Airports

 

 

Airport Name Latest METAR Visual Conditions
King Salmon (AKN) PAKN 312154Z 33011KT 3SM -SN BKN046 OVC060 M17/M20 A2909 RMK AO2 SLP852 P0000 T11671200 MVFR
Ted Stevens International (ANC) PANC 312153Z 15017G26KT 10SM FEW070 SCT110 BKN160 08/00 A2872 RMK AO2 PK WND 13035/2108 SLP728 T00780000 $ VFR
Bethel Airport (BET) PABE 312153Z 32017G25KT 10SM CLR M23/M27 A2944 RMK AO2 PK WND 31027/2112 SLP972 T12331272 $ VFR
Allen AAF (BIG) PABI 312153Z 11017KT 10SM SCT060 BKN110 BKN180 M03/M07 A2883 RMK AO2 PK WND 13031/2126 SLP795 T10281072 VFR
Elmendorf Air Force Base (EDF) PAED 312156Z 10005KT 10SM SCT065 BKN130 BKN170 09/M01 A2871 RMK AO2A PK WND 08032/35 SLP718 T00861007 $ VFR
Eielson Air Force Base (EIL) PAEI 312156Z 18003KT 10SM FEW008 M20/M23 A2891 RMK AO2A SLP808 T11961230 $ VFR
Kenai Municipal Airport (ENA) PAEN 312237Z 20013KT 10SM -RA BKN004 OVC046 02/01 A2870 RMK AO2 RAB2159 P0000 T00170006 LIFR
Fairbanks International (FAI) PAFA 312153Z 00000KT 10SM FEW070 BKN200 M20/M23 A2891 RMK AO2 SLP804 T12001233 VFR
Ladd AAF (FBK) PAFB 312158Z AUTO 00000KT 10SM CLR M20/M22 A2892 RMK AO2 SLP810 T12011225 $ VFR
Bryant AAF Airport (FRN) PAFR 312224Z AUTO 10010G22KT 9SM OVC150 09/M01 A2868 RMK AO2 WSHFT 21 SLP718 VFR
Juneau (JNU) PAJN 312153Z 11008KT 10SM SCT006 BKN011 OVC043 06/05 A2936 RMK AO2 SLP942 T00610050 MVFR
Merrill Field (MRI) PAMR 312153Z 15007G20KT 120V190 10SM CLR 10/M03 A2871 RMK AO2 SLP724 T01001028 VFR
Kodiak Airport (ODK) PADQ 312153Z 30015G22KT 1/2SM SN VV014 M02/M05 A2877 RMK PK WND 29026/2110 SLP744 P0001 T10221050 $ VIA AUTODIAL LIFR